עמוד ראשי
METAR-TAF:

METAR-TAF

שדות תעופה :

Fort Bliss, טקסס, ארצות הברית

קו רוחב: 31-50-58N, קו אורך: 106-22-48W, גובה: 1203מטר

תצפית מזג אוויר נוכחית

הדו"ח נערך לפני 1 שעות ו 2דקות, בשעה 11:55 UTC
רוח רגועה
טמפרטורת 25 צלסיוס
לחות 39%
לחץ 1024 hPa
ראות: 16.1קילומטר
עננים פזורים בגובה 11000רגל

METAR: KBIF 251155Z AUTO 00000KT 10SM SCT110 25/10 A3023 RMK AO2 SLP162 T02470102 10296 20246 53004 $

זמן: 06:57 (12:57 UTC)

תחזית

הדו"ח נערך לפני 1 שעות ו 57דקות, בשעה 11:00 UTC
תחזית בתוקף מ 25 ב 11 UTC עד 26 ב 17 UTC
רוח 6קשר מכיוון דרום-מזרח
ראות 10 קילומטר או יותר
מעט עננים בגובה 10000רגל
יעשה מ
25 ב 19 UTC עד 25 ב 20 UTC
רוח 6קשר עם כיוונים משתנים
ראות 10 קילומטר או יותר
מעט עננים בגובה 15000רגל

TAF: KBIF 251100Z 2511/2617 14006KT 9999 FEW100 QNH3022INS BECMG 2519/2520 VRB06KT 9999 FEW150 QNH3007INS TX36/2523Z TN23/2512Z

תצפיות ותחזיות מזג אוויר לגבי יותר מ- 4,000 שדות תעופה ברחבי העולם. דוחות METAR ו- TAF.

התחנות הזמינות מסומנות בנקודות צהובות ואדומות על גבי המפה.

העבר את העכבר לנקודה הצבעונית על מנת לראות את שם התחנה.

לאחר מכן, לחץ כדי לראות את תוכן ואת תחזיות מזג האוויר.

כדי לשנות את המפה: לחץ על הכפתורים הירוקים עם הפלוס השחור כדי להתקרב; על הכפתור הירוק עם המקף כדי להתרחק; או בחיצים הירוקים למפות סמוכות.


METAR-TAF: